Time;durP1;ratioP1;P1;durP2;ratioP2;P2;SDS_P1;SDS_P2;PMS_P1;PMS_P2;Temp;Humidity;BMP_temperature;BMP_pressure;BME280_temperature;BME280_humidity;BME280_pressure;Samples;Min_cycle;Max_cycle;Signal;HPM_P1;HPM_P2
2022/04/09 00:00:58;;;;;;;10.52;2.63;;;3.10;99.90;;;;;;5018703;28;20068;-83
2022/04/09 00:03:23;;;;;;;8.40;2.00;;;3.20;99.90;;;;;;4998379;28;20054;-82
2022/04/09 00:05:49;;;;;;;14.07;3.17;;;3.40;99.90;;;;;;5020332;28;20037;-82
2022/04/09 00:08:15;;;;;;;16.13;2.33;;;3.40;99.90;;;;;;5022181;28;20074;-82
2022/04/09 00:10:40;;;;;;;15.32;1.88;;;3.50;99.90;;;;;;5020336;28;20518;-82
2022/04/09 00:13:06;;;;;;;14.27;2.67;;;3.50;99.90;;;;;;5016501;28;20069;-81
2022/04/09 00:15:32;;;;;;;10.10;2.55;;;3.50;99.90;;;;;;5018307;28;20080;-81
2022/04/09 00:17:57;;;;;;;7.13;2.15;;;3.40;99.90;;;;;;5036022;28;20092;-81
2022/04/09 00:20:23;;;;;;;14.68;1.90;;;3.20;99.90;;;;;;5035550;28;20053;-81
2022/04/09 00:22:49;;;;;;;15.73;2.13;;;3.00;99.90;;;;;;5035689;28;20471;-81
2022/04/09 00:25:21;;;;;;;16.92;1.88;;;2.90;99.90;;;;;;5034632;28;20045;-81
2022/04/09 00:27:47;;;;;;;11.25;2.35;;;2.70;99.90;;;;;;5035776;28;20127;-81
2022/04/09 00:30:13;;;;;;;10.75;2.10;;;2.70;99.90;;;;;;5046805;28;20034;-81
2022/04/09 00:32:38;;;;;;;23.52;2.33;;;2.60;99.90;;;;;;5054614;28;20053;-81
2022/04/09 00:35:05;;;;;;;13.52;3.13;;;2.50;99.90;;;;;;5056118;28;20059;-81
2022/04/09 00:37:32;;;;;;;10.70;2.28;;;2.50;99.90;;;;;;5045690;28;20076;-81
2022/04/09 00:39:57;;;;;;;14.77;2.80;;;2.40;99.90;;;;;;5037249;28;20476;-81
2022/04/09 00:42:23;;;;;;;9.55;2.70;;;2.40;99.90;;;;;;5037435;28;20056;-82
2022/04/09 00:44:50;;;;;;;15.07;3.45;;;2.40;99.90;;;;;;5036777;28;20042;-81
2022/04/09 00:47:16;;;;;;;14.95;2.17;;;2.30;99.90;;;;;;5036596;28;20043;-81
2022/04/09 00:49:41;;;;;;;16.23;3.58;;;2.30;99.90;;;;;;5035577;28;20084;-81
2022/04/09 00:52:09;;;;;;;14.63;3.53;;;2.40;99.90;;;;;;5035005;28;20454;-81
2022/04/09 00:54:38;;;;;;;16.00;1.90;;;2.50;99.90;;;;;;5035087;28;20042;-81
2022/04/09 00:57:05;;;;;;;13.32;2.65;;;2.60;99.90;;;;;;5033907;28;20064;-81
2022/04/09 00:59:34;;;;;;;11.63;2.22;;;2.70;99.90;;;;;;5035887;28;20069;-81
2022/04/09 01:02:00;;;;;;;12.60;4.35;;;3.00;99.90;;;;;;5036170;28;20053;-82
2022/04/09 01:04:27;;;;;;;15.07;2.30;;;3.30;99.90;;;;;;5034710;28;20412;-81
2022/04/09 01:06:53;;;;;;;10.00;2.42;;;3.30;99.90;;;;;;5035101;28;20065;-81
2022/04/09 01:09:18;;;;;;;8.35;1.92;;;3.40;99.90;;;;;;5036004;28;20538;-81
2022/04/09 01:11:45;;;;;;;7.00;1.98;;;3.40;99.90;;;;;;5034760;28;20044;-80
2022/04/09 01:14:12;;;;;;;5.53;1.55;;;3.40;99.90;;;;;;5034898;28;20042;-81
2022/04/09 01:16:37;;;;;;;9.02;1.38;;;3.30;99.90;;;;;;5035708;28;20119;-81
2022/04/09 01:19:03;;;;;;;7.22;1.50;;;3.10;99.90;;;;;;5034606;28;20041;-81
2022/04/09 01:21:29;;;;;;;10.40;2.28;;;2.80;99.90;;;;;;5034152;28;20049;-81
2022/04/09 01:23:55;;;;;;;5.43;1.10;;;2.60;99.90;;;;;;5035023;28;20037;-81
2022/04/09 01:26:21;;;;;;;6.15;1.20;;;2.50;99.90;;;;;;5034550;28;20044;-80
2022/04/09 01:28:48;;;;;;;12.30;1.60;;;2.40;99.90;;;;;;5033954;28;20144;-81
2022/04/09 01:31:15;;;;;;;8.80;1.77;;;2.30;99.90;;;;;;5035698;28;20045;-81
2022/04/09 01:33:40;;;;;;;8.38;1.80;;;2.40;99.90;;;;;;5035628;28;20046;-81
2022/04/09 01:36:06;;;;;;;16.15;3.30;;;2.50;99.90;;;;;;5034784;28;20064;-81
2022/04/09 01:38:34;;;;;;;9.15;1.60;;;2.50;99.90;;;;;;5036232;28;20100;-81
2022/04/09 01:41:00;;;;;;;5.00;1.48;;;2.40;99.90;;;;;;5034864;28;20049;-80
2022/04/09 01:43:25;;;;;;;15.18;1.80;;;2.50;99.90;;;;;;5038006;28;20076;-80
2022/04/09 01:45:51;;;;;;;12.13;2.58;;;2.40;99.90;;;;;;5038562;28;20539;-81
2022/04/09 01:48:17;;;;;;;20.35;1.77;;;2.30;99.90;;;;;;5037557;28;20059;-81
2022/04/09 01:50:42;;;;;;;15.00;2.60;;;2.20;99.90;;;;;;5038432;28;20207;-81
2022/04/09 01:53:08;;;;;;;12.73;2.13;;;2.30;99.90;;;;;;5038733;28;20041;-81
2022/04/09 01:55:34;;;;;;;7.53;2.83;;;2.30;99.90;;;;;;5038374;28;20416;-81
2022/04/09 01:58:00;;;;;;;10.43;3.47;;;2.20;99.90;;;;;;5038139;28;20126;-80
2022/04/09 02:00:25;;;;;;;8.18;1.63;;;2.20;99.90;;;;;;5038723;28;20096;-81
2022/04/09 02:02:51;;;;;;;18.67;3.85;;;2.30;99.90;;;;;;5037779;28;20026;-81
2022/04/09 02:05:18;;;;;;;16.35;3.45;;;2.10;99.90;;;;;;5037967;28;20067;-81
2022/04/09 02:07:45;;;;;;;13.55;1.63;;;2.20;99.90;;;;;;5037841;28;20508;-81
2022/04/09 02:10:11;;;;;;;10.95;1.88;;;2.00;99.90;;;;;;5037508;28;20072;-80
2022/04/09 02:12:37;;;;;;;12.95;3.80;;;2.00;99.90;;;;;;5038019;28;20107;-80
2022/04/09 02:15:04;;;;;;;11.50;2.35;;;1.90;99.90;;;;;;5037751;28;20716;-81
2022/04/09 02:17:30;;;;;;;15.70;2.63;;;1.90;99.90;;;;;;5036067;28;20713;-82
2022/04/09 02:19:55;;;;;;;17.02;3.03;;;1.90;99.90;;;;;;5038156;28;20041;-82
2022/04/09 02:22:21;;;;;;;12.27;2.35;;;2.10;99.90;;;;;;5037809;28;20042;-81
2022/04/09 02:24:50;;;;;;;9.00;1.55;;;2.10;99.90;;;;;;5038372;28;20041;-81
2022/04/09 02:27:16;;;;;;;8.80;2.00;;;2.40;99.90;;;;;;5038030;28;20496;-81
2022/04/09 02:29:41;;;;;;;7.53;1.67;;;2.50;99.90;;;;;;5037629;28;20125;-81
2022/04/09 02:32:07;;;;;;;14.40;2.58;;;2.50;99.90;;;;;;5038015;28;20045;-82
2022/04/09 02:34:33;;;;;;;10.05;2.15;;;2.40;99.90;;;;;;5037800;28;20038;-81
2022/04/09 02:36:59;;;;;;;12.15;2.42;;;2.40;99.90;;;;;;5038196;28;20041;-81
2022/04/09 02:39:24;;;;;;;11.25;2.65;;;2.40;99.90;;;;;;5037185;28;20103;-82
2022/04/09 02:41:50;;;;;;;9.00;2.70;;;2.20;99.90;;;;;;5038138;28;20041;-82
2022/04/09 02:44:17;;;;;;;7.85;1.83;;;2.10;99.90;;;;;;5037378;28;20050;-82
2022/04/09 02:46:44;;;;;;;12.95;3.28;;;2.10;99.90;;;;;;5037453;28;20396;-81
2022/04/09 02:49:10;;;;;;;8.82;2.50;;;2.10;99.90;;;;;;5036420;28;20423;-81
2022/04/09 02:51:36;;;;;;;12.25;2.30;;;1.90;99.90;;;;;;5036976;28;20064;-81
2022/04/09 02:54:01;;;;;;;7.40;2.22;;;1.90;99.90;;;;;;5036691;28;20041;-81
2022/04/09 02:56:27;;;;;;;13.25;2.25;;;1.90;99.90;;;;;;5037319;28;20129;-82
2022/04/09 02:58:52;;;;;;;14.32;2.92;;;1.90;99.90;;;;;;5052910;28;20076;-81
2022/04/09 03:01:18;;;;;;;15.63;2.47;;;2.00;99.90;;;;;;5037805;28;20507;-81
2022/04/09 03:03:44;;;;;;;17.08;2.35;;;2.20;99.90;;;;;;5038199;28;20079;-82
2022/04/09 03:06:10;;;;;;;10.85;2.38;;;2.20;99.90;;;;;;5038048;28;20042;-82
2022/04/09 03:08:36;;;;;;;10.20;2.47;;;2.20;99.90;;;;;;5039061;28;20115;-81
2022/04/09 03:11:01;;;;;;;13.68;4.50;;;2.20;99.90;;;;;;5037937;28;20049;-82
2022/04/09 03:13:27;;;;;;;10.07;3.17;;;2.20;99.90;;;;;;5037925;28;20064;-81
2022/04/09 03:15:52;;;;;;;18.52;2.30;;;2.00;99.90;;;;;;5038934;28;20128;-81
2022/04/09 03:18:18;;;;;;;9.25;2.30;;;2.00;99.90;;;;;;5037769;28;20531;-81
2022/04/09 03:20:43;;;;;;;16.20;2.83;;;2.10;99.90;;;;;;5036899;28;20042;-81
2022/04/09 03:23:09;;;;;;;12.40;2.88;;;2.30;99.90;;;;;;5038308;28;20055;-81
2022/04/09 03:25:34;;;;;;;21.75;2.85;;;2.40;99.90;;;;;;5037975;28;20112;-82
2022/04/09 03:28:00;;;;;;;7.10;1.63;;;2.50;99.90;;;;;;5038952;28;20038;-81
2022/04/09 03:30:25;;;;;;;11.93;1.75;;;2.60;99.90;;;;;;5039254;28;20045;-82
2022/04/09 03:32:51;;;;;;;11.32;2.92;;;2.70;99.90;;;;;;5039075;28;20052;-81
2022/04/09 03:35:17;;;;;;;17.15;2.25;;;2.70;99.90;;;;;;5038606;28;20711;-81
2022/04/09 03:37:44;;;;;;;20.13;2.30;;;2.60;99.90;;;;;;5039716;28;20045;-82
2022/04/09 03:40:10;;;;;;;15.35;2.92;;;2.60;99.90;;;;;;5038574;28;20064;-82
2022/04/09 03:42:35;;;;;;;10.45;2.10;;;2.60;99.90;;;;;;5038083;28;20037;-81
2022/04/09 03:45:01;;;;;;;10.65;2.42;;;2.60;99.90;;;;;;5039360;28;20143;-82
2022/04/09 03:47:26;;;;;;;6.45;1.70;;;2.50;99.90;;;;;;5038856;28;20038;-82
2022/04/09 03:49:52;;;;;;;12.85;1.95;;;2.40;99.90;;;;;;5020573;28;20096;-81
2022/04/09 03:52:17;;;;;;;9.93;2.22;;;2.30;99.90;;;;;;5038179;28;20050;-81
2022/04/09 03:54:43;;;;;;;11.15;2.45;;;2.30;99.90;;;;;;5038568;28;20046;-82
2022/04/09 03:57:09;;;;;;;19.85;2.28;;;2.20;99.90;;;;;;5039546;28;20048;-82
2022/04/09 03:59:35;;;;;;;19.42;2.92;;;2.20;99.90;;;;;;5039642;28;20052;-82
2022/04/09 04:02:01;;;;;;;7.78;1.75;;;2.20;99.90;;;;;;5038549;28;20095;-82
2022/04/09 04:04:27;;;;;;;10.32;2.40;;;2.30;99.90;;;;;;5039252;28;20046;-81
2022/04/09 04:06:52;;;;;;;15.68;2.05;;;2.20;99.90;;;;;;5039996;28;20483;-81
2022/04/09 04:09:18;;;;;;;13.52;2.10;;;2.00;99.90;;;;;;5038887;28;20500;-81
2022/04/09 04:11:44;;;;;;;10.48;2.20;;;2.00;99.90;;;;;;5038025;28;20483;-82
2022/04/09 04:14:11;;;;;;;8.00;2.63;;;2.00;99.90;;;;;;5038046;28;20056;-81
2022/04/09 04:16:37;;;;;;;8.10;2.45;;;1.90;99.90;;;;;;5039110;28;20076;-81
2022/04/09 04:19:03;;;;;;;14.52;2.22;;;2.00;99.90;;;;;;5038970;28;20049;-82
2022/04/09 04:21:28;;;;;;;8.57;2.28;;;2.00;99.90;;;;;;5038073;28;20048;-81
2022/04/09 04:23:54;;;;;;;7.07;1.88;;;1.90;99.90;;;;;;5037937;28;20531;-82
2022/04/09 04:26:23;;;;;;;10.85;3.17;;;1.90;99.90;;;;;;5038634;28;20069;-81
2022/04/09 04:28:48;;;;;;;8.75;1.98;;;1.90;99.90;;;;;;5038335;28;20045;-81
2022/04/09 04:31:18;;;;;;;16.05;4.40;;;1.90;99.90;;;;;;5038299;28;20432;-81
2022/04/09 04:33:44;;;;;;;18.50;2.15;;;2.00;99.90;;;;;;5038653;28;20498;-81
2022/04/09 04:36:10;;;;;;;10.13;2.03;;;2.10;99.90;;;;;;5038696;28;20103;-81
2022/04/09 04:38:35;;;;;;;10.88;2.25;;;2.10;99.90;;;;;;5038580;28;20042;-81
2022/04/09 04:41:02;;;;;;;5.65;1.75;;;2.20;99.90;;;;;;5038774;28;20061;-82
2022/04/09 04:43:28;;;;;;;12.25;2.65;;;2.30;99.90;;;;;;5039187;28;20116;-81
2022/04/09 04:45:53;;;;;;;4.93;1.40;;;2.20;99.90;;;;;;5038883;28;20073;-80
2022/04/09 04:48:20;;;;;;;13.02;2.05;;;2.20;99.90;;;;;;5038435;28;20132;-81
2022/04/09 04:50:46;;;;;;;14.98;2.20;;;2.10;99.90;;;;;;5040843;28;20073;-81
2022/04/09 04:53:12;;;;;;;7.30;1.40;;;2.10;99.90;;;;;;5042556;28;20532;-81
2022/04/09 04:55:38;;;;;;;8.38;1.90;;;2.20;99.90;;;;;;5040877;28;20077;-81
2022/04/09 04:58:03;;;;;;;12.80;2.00;;;2.20;99.90;;;;;;5037310;28;20389;-81
2022/04/09 05:00:29;;;;;;;14.25;2.42;;;2.20;99.90;;;;;;5037914;28;20037;-81
2022/04/09 05:02:56;;;;;;;8.35;1.45;;;2.30;99.90;;;;;;5037734;28;20382;-81
2022/04/09 05:05:22;;;;;;;14.00;2.25;;;2.20;99.90;;;;;;5037638;28;20049;-81
2022/04/09 05:07:49;;;;;;;11.82;1.73;;;2.10;99.90;;;;;;5037212;28;20041;-81
2022/04/09 05:10:16;;;;;;;10.82;2.10;;;2.20;99.90;;;;;;5039154;28;20491;-81
2022/04/09 05:12:43;;;;;;;7.80;1.83;;;2.30;99.90;;;;;;5038047;28;20050;-81
2022/04/09 05:15:10;;;;;;;9.93;1.58;;;2.30;99.90;;;;;;5039275;28;20053;-81
2022/04/09 05:17:36;;;;;;;10.00;1.75;;;2.30;99.90;;;;;;5042765;28;20045;-81
2022/04/09 05:20:04;;;;;;;11.52;1.48;;;2.20;99.90;;;;;;5024962;28;20049;-81
2022/04/09 05:22:30;;;;;;;4.15;1.48;;;2.20;99.90;;;;;;5043099;28;20039;-81
2022/04/09 05:24:57;;;;;;;6.88;1.23;;;2.20;99.90;;;;;;5043187;28;20065;-81
2022/04/09 05:27:23;;;;;;;10.23;1.60;;;2.30;99.90;;;;;;5043332;28;20072;-81
2022/04/09 05:29:49;;;;;;;8.13;2.05;;;2.30;99.90;;;;;;5043703;28;20049;-81
2022/04/09 05:32:14;;;;;;;5.93;1.45;;;2.30;99.90;;;;;;5043649;28;20418;-81
2022/04/09 05:34:40;;;;;;;9.75;1.73;;;2.40;99.90;;;;;;5043894;28;20049;-81
2022/04/09 05:37:09;;;;;;;7.90;1.75;;;2.50;99.90;;;;;;5044347;28;20044;-81
2022/04/09 05:39:35;;;;;;;6.50;0.98;;;2.60;99.90;;;;;;5042799;28;20120;-81
2022/04/09 05:42:00;;;;;;;10.57;1.90;;;2.70;99.90;;;;;;5044486;28;20127;-81
2022/04/09 05:44:26;;;;;;;15.65;2.40;;;2.80;99.90;;;;;;5043024;28;20061;-81
2022/04/09 05:46:52;;;;;;;10.80;2.42;;;2.80;99.90;;;;;;5042929;28;20084;-81
2022/04/09 05:49:18;;;;;;;8.60;1.30;;;2.80;99.90;;;;;;5042199;28;20053;-82
2022/04/09 05:51:44;;;;;;;10.48;1.50;;;2.80;99.90;;;;;;5042961;28;20049;-81
2022/04/09 05:54:09;;;;;;;8.82;2.55;;;2.80;99.90;;;;;;5042771;28;20067;-81
2022/04/09 05:56:36;;;;;;;7.47;2.42;;;2.90;99.90;;;;;;5041646;28;20057;-81
2022/04/09 05:59:02;;;;;;;11.25;3.17;;;3.00;99.90;;;;;;5045057;28;20049;-81
2022/04/09 06:01:28;;;;;;;11.02;2.00;;;3.20;99.90;;;;;;5044145;28;20044;-81
2022/04/09 06:03:55;;;;;;;15.18;2.15;;;3.30;99.90;;;;;;5043436;28;20048;-81
2022/04/09 06:06:22;;;;;;;5.70;1.85;;;3.50;99.90;;;;;;5044292;28;20047;-82
2022/04/09 06:08:48;;;;;;;13.45;2.35;;;3.60;99.90;;;;;;5042902;28;20128;-81
2022/04/09 06:11:18;;;;;;;15.70;2.00;;;3.70;99.90;;;;;;5042184;28;20056;-82
2022/04/09 06:13:43;;;;;;;14.50;3.10;;;3.70;99.90;;;;;;5041355;28;20056;-81
2022/04/09 06:16:09;;;;;;;13.90;3.33;;;3.70;99.90;;;;;;5040241;28;20049;-82
2022/04/09 06:18:38;;;;;;;13.63;1.80;;;3.70;99.90;;;;;;5040263;28;20045;-82
2022/04/09 06:21:04;;;;;;;10.82;1.60;;;3.70;99.90;;;;;;5039973;28;20045;-82
2022/04/09 06:23:30;;;;;;;12.95;3.30;;;3.70;99.90;;;;;;5040200;28;20060;-82
2022/04/09 06:25:56;;;;;;;11.90;2.90;;;3.60;99.90;;;;;;5022442;28;20132;-82
2022/04/09 06:28:21;;;;;;;15.70;2.67;;;3.60;99.90;;;;;;5038299;28;20077;-82
2022/04/09 06:30:47;;;;;;;10.00;1.92;;;3.60;99.90;;;;;;5021745;28;20080;-83
2022/04/09 06:33:12;;;;;;;13.52;1.95;;;3.60;99.90;;;;;;5040111;28;20045;-83
2022/04/09 06:35:38;;;;;;;18.33;2.42;;;3.60;99.90;;;;;;5040064;28;20053;-83
2022/04/09 06:38:04;;;;;;;14.63;2.17;;;3.40;99.90;;;;;;5039053;28;20050;-83
2022/04/09 06:40:29;;;;;;;14.75;3.35;;;3.80;99.90;;;;;;5040408;28;20052;-82
2022/04/09 06:42:56;;;;;;;16.73;1.90;;;4.70;99.90;;;;;;5040551;28;20045;-83
2022/04/09 06:45:22;;;;;;;16.75;3.80;;;5.70;99.90;;;;;;5037969;28;20048;-82
2022/04/09 06:47:47;;;;;;;15.60;2.13;;;6.40;99.90;;;;;;5040113;28;20045;-82
2022/04/09 06:50:14;;;;;;;18.17;3.60;;;6.60;99.90;;;;;;5037841;28;20033;-83
2022/04/09 06:52:40;;;;;;;6.93;2.30;;;6.50;99.90;;;;;;5040038;28;20049;-83
2022/04/09 06:55:09;;;;;;;14.07;2.50;;;6.40;99.90;;;;;;5040903;28;20072;-83
2022/04/09 06:57:36;;;;;;;15.23;2.05;;;6.90;99.90;;;;;;5039851;28;20050;-83
2022/04/09 07:00:04;;;;;;;9.00;1.95;;;7.40;99.90;;;;;;5039383;28;20055;-83
2022/04/09 07:02:30;;;;;;;5.88;1.20;;;8.00;99.90;;;;;;5042003;28;20041;-83
2022/04/09 07:04:55;;;;;;;9.77;1.77;;;8.20;99.90;;;;;;5041163;28;20075;-83
2022/04/09 07:07:22;;;;;;;10.50;1.85;;;7.80;99.90;;;;;;5040585;28;20049;-83
2022/04/09 07:09:48;;;;;;;15.18;2.95;;;7.20;99.90;;;;;;5041272;28;20049;-83
2022/04/09 07:12:13;;;;;;;14.95;2.28;;;7.40;99.90;;;;;;5040592;28;20046;-82
2022/04/09 07:14:39;;;;;;;10.77;2.45;;;7.80;99.90;;;;;;5041385;28;20184;-82
2022/04/09 07:17:05;;;;;;;12.52;2.80;;;8.20;99.90;;;;;;5040655;28;20049;-83
2022/04/09 07:19:31;;;;;;;13.48;3.13;;;8.60;99.90;;;;;;5039428;28;20034;-83
2022/04/09 07:21:58;;;;;;;9.63;1.40;;;8.80;99.90;;;;;;5040991;28;20053;-83
2022/04/09 07:24:23;;;;;;;13.32;2.00;;;9.20;99.90;;;;;;5040860;28;20049;-83
2022/04/09 07:26:49;;;;;;;6.90;1.50;;;9.30;99.90;;;;;;5042967;28;20097;-83
2022/04/09 07:29:15;;;;;;;7.85;1.23;;;9.80;99.90;;;;;;5042365;28;20041;-83
2022/04/09 07:31:41;;;;;;;8.43;2.35;;;9.20;99.90;;;;;;5022720;28;20034;-83
2022/04/09 07:34:06;;;;;;;10.05;2.22;;;9.20;99.90;;;;;;5038648;28;20041;-83
2022/04/09 07:36:32;;;;;;;11.25;1.58;;;8.70;99.90;;;;;;5039648;28;20049;-83
2022/04/09 07:38:58;;;;;;;7.05;1.45;;;8.30;99.90;;;;;;5039097;28;20069;-82
2022/04/09 07:41:23;;;;;;;18.10;3.67;;;7.80;99.90;;;;;;5040381;28;20373;-83
2022/04/09 07:43:49;;;;;;;10.75;1.83;;;7.50;99.90;;;;;;5040266;28;20053;-83
2022/04/09 07:46:14;;;;;;;7.35;1.98;;;7.30;99.90;;;;;;5040450;28;20044;-83
2022/04/09 07:48:40;;;;;;;7.43;1.52;;;7.40;99.90;;;;;;5045026;28;20037;-82
2022/04/09 07:51:05;;;;;;;6.05;1.27;;;7.80;99.90;;;;;;5045342;28;20057;-83
2022/04/09 07:53:31;;;;;;;8.13;1.63;;;8.20;99.90;;;;;;5045649;28;20037;-83
2022/04/09 07:55:57;;;;;;;7.57;1.08;;;8.30;99.90;;;;;;5037894;28;20127;-83
2022/04/09 07:58:22;;;;;;;8.05;1.20;;;8.00;99.90;;;;;;5038167;28;20103;-83
2022/04/09 08:00:49;;;;;;;11.63;1.23;;;7.50;99.90;;;;;;5038857;28;20476;-82
2022/04/09 08:03:15;;;;;;;8.07;1.55;;;7.60;99.90;;;;;;5035236;28;20046;-83
2022/04/09 08:05:41;;;;;;;11.20;1.40;;;7.50;99.90;;;;;;5036727;28;20064;-83
2022/04/09 08:08:08;;;;;;;10.38;2.20;;;7.60;99.90;;;;;;5036513;28;20041;-83
2022/04/09 08:10:34;;;;;;;14.73;1.77;;;7.90;99.90;;;;;;5036502;28;20124;-83
2022/04/09 08:13:00;;;;;;;14.35;2.35;;;8.60;99.90;;;;;;5037861;28;20132;-83
2022/04/09 08:15:26;;;;;;;10.73;1.65;;;9.30;99.90;;;;;;5037714;28;20488;-83
2022/04/09 08:17:54;;;;;;;10.38;1.77;;;9.30;99.90;;;;;;5038421;28;20045;-83
2022/04/09 08:20:21;;;;;;;12.77;1.70;;;10.00;99.90;;;;;;5020482;28;20488;-81
2022/04/09 08:22:47;;;;;;;6.47;1.00;;;10.40;99.90;;;;;;5038627;28;20492;-81
2022/04/09 08:25:13;;;;;;;10.35;2.28;;;10.40;99.90;;;;;;5039318;28;20060;-81
2022/04/09 08:27:38;;;;;;;9.57;1.17;;;10.80;99.90;;;;;;5039802;28;20344;-81
2022/04/09 08:30:06;;;;;;;9.85;2.35;;;11.70;99.90;;;;;;5040256;28;20041;-82
2022/04/09 08:32:32;;;;;;;15.00;2.50;;;11.90;99.90;;;;;;5039052;28;20049;-81
2022/04/09 08:34:58;;;;;;;12.60;2.75;;;11.20;99.90;;;;;;5037936;28;20038;-81
2022/04/09 08:37:24;;;;;;;7.63;1.45;;;9.90;99.90;;;;;;5038923;28;20468;-81
2022/04/09 08:39:54;;;;;;;10.23;1.60;;;9.40;99.90;;;;;;5023307;28;20084;-82
2022/04/09 08:42:21;;;;;;;9.10;2.30;;;9.50;99.90;;;;;;5041728;28;20045;-82
2022/04/09 08:44:48;;;;;;;16.95;1.80;;;9.20;99.90;;;;;;5038771;28;20045;-81
2022/04/09 08:47:14;;;;;;;9.70;1.67;;;9.10;99.90;;;;;;5046126;28;20085;-82
2022/04/09 08:49:45;;;;;;;12.18;1.40;;;9.50;99.90;;;;;;5047860;28;20049;-81
2022/04/09 08:52:11;;;;;;;7.65;1.50;;;10.00;99.90;;;;;;5047991;28;20083;-82
2022/04/09 08:54:37;;;;;;;7.90;1.27;;;10.10;99.90;;;;;;5042746;28;20041;-82
2022/04/09 08:57:04;;;;;;;7.00;1.50;;;10.50;99.90;;;;;;5043248;28;20129;-82
2022/04/09 08:59:30;;;;;;;10.30;1.95;;;10.80;99.90;;;;;;5046233;28;20046;-82
2022/04/09 09:01:55;;;;;;;8.85;1.48;;;10.90;99.90;;;;;;5048183;28;20093;-82
2022/04/09 09:04:21;;;;;;;12.52;2.17;;;11.40;99.90;;;;;;5051563;28;20046;-82
2022/04/09 09:06:47;;;;;;;6.45;2.05;;;11.50;99.90;;;;;;5047905;28;20068;-81
2022/04/09 09:09:30;;;;;;;8.77;1.60;;;10.90;99.90;;;;;;5051064;28;20045;-82
2022/04/09 09:11:57;;;;;;;7.15;1.15;;;11.40;99.90;;;;;;5050200;28;20056;-82
2022/04/09 09:14:28;;;;;;;9.70;1.67;;;12.10;96.30;;;;;;5048389;28;20046;-82
2022/04/09 09:16:54;;;;;;;4.15;1.00;;;11.80;99.30;;;;;;5046667;28;20057;-82
2022/04/09 09:19:21;;;;;;;7.05;1.25;;;9.90;99.90;;;;;;5047856;28;20034;-84
2022/04/09 09:21:56;;;;;;;5.38;1.00;;;8.40;99.90;;;;;;5044109;28;20076;-82
2022/04/09 09:24:22;;;;;;;6.68;1.33;;;7.10;99.90;;;;;;5041840;28;20092;-82
2022/04/09 09:26:58;;;;;;;8.82;1.25;;;6.20;99.90;;;;;;5040593;28;20489;-82
2022/04/09 09:29:28;;;;;;;14.52;1.80;;;5.80;99.90;;;;;;5040635;28;20068;-83
2022/04/09 09:31:55;;;;;;;5.63;0.93;;;5.40;99.90;;;;;;5042274;28;20402;-82
2022/04/09 09:34:21;;;;;;;2.72;0.65;;;5.40;99.90;;;;;;5041714;28;20465;-82
2022/04/09 09:36:48;;;;;;;7.38;1.40;;;5.40;99.90;;;;;;5040583;28;20064;-83
2022/04/09 09:39:16;;;;;;;6.97;1.30;;;5.70;99.90;;;;;;5040011;28;20089;-83
2022/04/09 09:41:59;;;;;;;5.60;0.82;;;5.90;99.90;;;;;;5043139;28;20053;-83
2022/04/09 09:44:26;;;;;;;9.80;1.83;;;5.80;99.90;;;;;;5041513;28;20052;-82
2022/04/09 09:46:53;;;;;;;8.18;1.20;;;5.70;99.90;;;;;;5041808;28;20038;-82
2022/04/09 09:49:24;;;;;;;5.75;0.98;;;5.70;99.90;;;;;;5043175;28;20049;-82
2022/04/09 09:52:03;;;;;;;7.85;1.48;;;5.90;99.90;;;;;;5041754;28;20049;-82
2022/04/09 09:54:28;;;;;;;5.05;1.13;;;6.40;99.90;;;;;;5044550;28;20484;-82
2022/04/09 09:56:57;;;;;;;4.65;1.52;;;6.90;99.90;;;;;;5043110;28;20049;-83
2022/04/09 09:59:24;;;;;;;13.43;2.13;;;7.40;99.90;;;;;;5044619;28;20057;-82
2022/04/09 10:01:51;;;;;;;8.43;1.80;;;8.10;99.90;;;;;;5043059;28;20056;-83
2022/04/09 10:04:17;;;;;;;9.00;2.17;;;8.90;99.90;;;;;;5039749;28;20127;-82
2022/04/09 10:06:43;;;;;;;11.38;1.85;;;9.30;99.90;;;;;;5040163;28;20054;-83
2022/04/09 10:09:10;;;;;;;7.85;1.50;;;8.20;99.90;;;;;;5038171;28;20072;-82
2022/04/09 10:11:42;;;;;;;6.10;1.17;;;5.90;99.90;;;;;;5038084;28;20512;-82
2022/04/09 10:14:10;;;;;;;5.57;1.13;;;6.20;99.90;;;;;;5037492;28;20111;-82
2022/04/09 10:16:38;;;;;;;8.50;1.48;;;4.70;99.90;;;;;;5037119;28;20045;-82
2022/04/09 10:19:05;;;;;;;5.35;0.82;;;4.60;99.90;;;;;;5036998;28;20496;-82
2022/04/09 10:21:35;;;;;;;6.00;1.17;;;6.00;99.90;;;;;;5037114;28;20064;-82
2022/04/09 10:24:04;;;;;;;6.93;1.42;;;5.30;99.90;;;;;;5037620;28;20048;-82
2022/04/09 10:26:30;;;;;;;2.58;0.75;;;5.80;99.90;;;;;;5037341;28;20038;-82
2022/04/09 10:29:07;;;;;;;3.97;1.02;;;6.30;99.90;;;;;;5037656;28;20191;-82
2022/04/09 10:31:34;;;;;;;2.67;0.73;;;6.60;99.90;;;;;;5037225;28;20081;-82
2022/04/09 10:34:02;;;;;;;1.50;0.40;;;6.90;99.90;;;;;;5038013;28;20049;-82
2022/04/09 10:36:48;;;;;;;3.95;0.77;;;7.10;99.90;;;;;;5037474;28;20092;-82
2022/04/09 10:39:40;;;;;;;2.88;0.47;;;7.30;99.90;;;;;;5037727;28;20397;-81
2022/04/09 10:42:07;;;;;;;3.00;0.32;;;7.60;99.90;;;;;;5038340;28;20072;-82
2022/04/09 10:44:51;;;;;;;3.67;0.80;;;8.00;99.90;;;;;;5037817;28;20124;-81
2022/04/09 10:47:18;;;;;;;6.50;1.65;;;8.40;99.90;;;;;;5037643;28;20467;-82
2022/04/09 10:50:05;;;;;;;4.80;1.02;;;8.60;99.90;;;;;;5019082;28;20176;-82
2022/04/09 10:52:32;;;;;;;3.95;1.05;;;8.50;99.90;;;;;;5037405;28;20060;-82
2022/04/09 10:55:20;;;;;;;5.53;1.00;;;8.50;99.90;;;;;;5037286;28;20045;-82
2022/04/09 10:57:47;;;;;;;4.03;1.40;;;8.60;99.90;;;;;;5038339;28;20381;-82
2022/04/09 11:00:22;;;;;;;6.65;1.13;;;8.70;99.90;;;;;;5038196;28;20057;-82
2022/04/09 11:03:04;;;;;;;4.38;1.17;;;9.10;99.90;;;;;;5038333;28;20139;-82
2022/04/09 11:05:29;;;;;;;7.78;1.15;;;9.40;99.90;;;;;;5038401;28;20045;-82
2022/04/09 11:08:07;;;;;;;8.63;1.15;;;9.90;99.90;;;;;;5037270;28;20057;-82
2022/04/09 11:10:36;;;;;;;5.95;1.27;;;9.90;99.90;;;;;;5036892;28;20103;-82
2022/04/09 11:13:03;;;;;;;4.05;0.75;;;9.50;99.90;;;;;;5036276;28;20507;-82
2022/04/09 11:15:29;;;;;;;7.57;1.40;;;9.00;99.90;;;;;;5036587;28;20045;-81
2022/04/09 11:18:01;;;;;;;5.78;1.50;;;8.70;99.90;;;;;;5023131;28;20049;-81
2022/04/09 11:20:31;;;;;;;6.88;1.15;;;8.60;99.90;;;;;;5055381;28;20084;-82
2022/04/09 11:23:06;;;;;;;9.85;1.40;;;8.60;99.90;;;;;;5054829;28;20041;-82
2022/04/09 11:25:32;;;;;;;6.60;1.27;;;8.50;99.90;;;;;;5053350;28;20097;-81
2022/04/09 11:28:06;;;;;;;7.25;1.40;;;8.80;99.90;;;;;;5038687;28;20045;-81
2022/04/09 11:30:31;;;;;;;8.07;1.23;;;8.60;99.90;;;;;;5038415;28;20477;-82
2022/04/09 11:32:57;;;;;;;7.53;1.02;;;8.30;99.90;;;;;;5039056;28;20045;-82
2022/04/09 11:35:25;;;;;;;6.95;0.90;;;8.70;99.90;;;;;;5022589;28;20046;-82
2022/04/09 11:37:52;;;;;;;9.02;1.23;;;9.50;99.90;;;;;;5038492;28;20050;-81
2022/04/09 11:40:21;;;;;;;7.50;1.40;;;10.30;99.90;;;;;;5036702;28;20186;-82
2022/04/09 11:42:49;;;;;;;8.60;1.65;;;10.60;99.90;;;;;;5039504;28;20072;-82
2022/04/09 11:45:29;;;;;;;9.55;1.60;;;10.80;99.90;;;;;;5037842;28;20455;-82
2022/04/09 11:47:58;;;;;;;8.85;1.60;;;11.30;99.90;;;;;;5038168;28;20048;-82
2022/04/09 11:50:25;;;;;;;4.70;1.27;;;11.20;99.90;;;;;;5038321;28;20053;-82
2022/04/09 11:52:52;;;;;;;11.90;1.83;;;11.10;99.90;;;;;;5037568;28;20056;-82
2022/04/09 11:55:18;;;;;;;11.00;1.60;;;11.50;99.90;;;;;;5037617;28;20049;-82
2022/04/09 11:57:53;;;;;;;7.53;1.50;;;12.20;99.90;;;;;;5037352;28;20048;-82
2022/04/09 12:00:23;;;;;;;5.10;1.20;;;13.10;99.90;;;;;;5037153;28;20087;-83
2022/04/09 12:02:49;;;;;;;10.85;1.58;;;11.80;99.90;;;;;;5037063;28;20423;-84
2022/04/09 12:05:16;;;;;;;8.95;1.15;;;10.10;99.90;;;;;;5036945;28;20129;-84
2022/04/09 12:07:46;;;;;;;5.70;1.42;;;8.70;99.90;;;;;;5036350;28;20060;-84
2022/04/09 12:10:25;;;;;;;7.20;1.00;;;7.40;99.90;;;;;;5035935;28;20045;-82
2022/04/09 12:12:58;;;;;;;6.88;1.73;;;7.30;99.90;;;;;;5035870;28;20500;-82
2022/04/09 12:15:32;;;;;;;7.55;1.83;;;7.40;99.90;;;;;;5035855;28;20049;-82
2022/04/09 12:17:59;;;;;;;11.20;1.00;;;6.80;99.90;;;;;;5037087;28;20041;-83
2022/04/09 12:20:32;;;;;;;12.60;2.55;;;6.10;99.90;;;;;;5036013;28;20049;-83
2022/04/09 12:22:58;;;;;;;8.82;1.23;;;5.20;99.90;;;;;;5034234;28;20054;-82
2022/04/09 12:25:44;;;;;;;11.05;1.65;;;4.80;99.90;;;;;;5034107;28;20048;-83
2022/04/09 12:28:24;;;;;;;9.13;2.17;;;5.30;99.90;;;;;;5037345;28;20045;-82
2022/04/09 12:30:52;;;;;;;13.15;2.53;;;6.20;99.90;;;;;;5038594;28;20281;-82
2022/04/09 12:33:20;;;;;;;8.90;2.00;;;7.00;99.90;;;;;;5038104;28;20046;-82
2022/04/09 12:35:46;;;;;;;8.77;1.00;;;7.90;99.90;;;;;;5037648;28;20095;-82
2022/04/09 12:38:30;;;;;;;9.48;1.60;;;8.10;99.90;;;;;;5037151;28;20038;-82
2022/04/09 12:41:01;;;;;;;5.13;1.40;;;8.40;99.90;;;;;;5038923;28;21038;-82
2022/04/09 12:43:39;;;;;;;21.98;2.08;;;8.20;99.90;;;;;;5038536;28;20112;-83
2022/04/09 12:46:11;;;;;;;2.70;0.70;;;8.50;99.90;;;;;;5039870;28;20053;-82
2022/04/09 12:48:45;;;;;;;3.13;0.73;;;8.30;99.90;;;;;;5041470;28;20054;-83
2022/04/09 12:51:18;;;;;;;5.10;1.17;;;8.50;99.90;;;;;;5040044;28;20043;-82